sensor_id;sensor_type;location;lat;lon;timestamp;temperature;humidity
33761;DHT22;20084;47.912;19.044;2023-12-20T00:00:16;0.20;99.90
33761;DHT22;20084;47.912;19.044;2023-12-20T00:02:42;0.20;99.90
33761;DHT22;20084;47.912;19.044;2023-12-20T00:05:12;0.30;99.90
33761;DHT22;20084;47.912;19.044;2023-12-20T00:07:38;0.30;99.90
33761;DHT22;20084;47.912;19.044;2023-12-20T00:10:04;0.50;99.90
33761;DHT22;20084;47.912;19.044;2023-12-20T00:12:29;0.50;99.90
33761;DHT22;20084;47.912;19.044;2023-12-20T00:14:55;0.40;99.90
33761;DHT22;20084;47.912;19.044;2023-12-20T00:17:20;0.40;99.90
33761;DHT22;20084;47.912;19.044;2023-12-20T00:19:46;0.30;99.90
33761;DHT22;20084;47.912;19.044;2023-12-20T00:22:11;0.30;99.90
33761;DHT22;20084;47.912;19.044;2023-12-20T00:24:37;0.40;99.90
33761;DHT22;20084;47.912;19.044;2023-12-20T00:27:02;0.50;99.90
33761;DHT22;20084;47.912;19.044;2023-12-20T00:29:28;0.40;99.90
33761;DHT22;20084;47.912;19.044;2023-12-20T00:31:53;0.50;99.90
33761;DHT22;20084;47.912;19.044;2023-12-20T00:34:19;0.50;99.90
33761;DHT22;20084;47.912;19.044;2023-12-20T00:36:44;0.50;99.90
33761;DHT22;20084;47.912;19.044;2023-12-20T00:39:10;0.50;99.90
33761;DHT22;20084;47.912;19.044;2023-12-20T00:41:35;0.50;99.90
33761;DHT22;20084;47.912;19.044;2023-12-20T00:44:01;0.50;99.90
33761;DHT22;20084;47.912;19.044;2023-12-20T00:46:26;0.50;99.90
33761;DHT22;20084;47.912;19.044;2023-12-20T00:48:51;0.60;99.90
33761;DHT22;20084;47.912;19.044;2023-12-20T00:51:17;0.60;99.90
33761;DHT22;20084;47.912;19.044;2023-12-20T00:53:42;0.60;99.90
33761;DHT22;20084;47.912;19.044;2023-12-20T00:56:08;0.60;99.90
33761;DHT22;20084;47.912;19.044;2023-12-20T00:58:34;0.50;99.90
33761;DHT22;20084;47.912;19.044;2023-12-20T01:00:59;0.50;99.90
33761;DHT22;20084;47.912;19.044;2023-12-20T01:03:25;0.50;99.90
33761;DHT22;20084;47.912;19.044;2023-12-20T01:05:50;0.50;99.90
33761;DHT22;20084;47.912;19.044;2023-12-20T01:08:16;0.50;99.90
33761;DHT22;20084;47.912;19.044;2023-12-20T01:10:41;0.50;99.90
33761;DHT22;20084;47.912;19.044;2023-12-20T01:13:07;0.50;99.90
33761;DHT22;20084;47.912;19.044;2023-12-20T01:15:34;0.60;99.90
33761;DHT22;20084;47.912;19.044;2023-12-20T01:17:59;0.50;99.90
33761;DHT22;20084;47.912;19.044;2023-12-20T01:20:25;0.50;99.90
33761;DHT22;20084;47.912;19.044;2023-12-20T01:22:50;0.50;99.90
33761;DHT22;20084;47.912;19.044;2023-12-20T01:25:16;0.50;99.90
33761;DHT22;20084;47.912;19.044;2023-12-20T01:27:41;0.40;99.90
33761;DHT22;20084;47.912;19.044;2023-12-20T01:30:07;0.30;99.90
33761;DHT22;20084;47.912;19.044;2023-12-20T01:32:32;0.30;99.90
33761;DHT22;20084;47.912;19.044;2023-12-20T01:34:58;0.30;99.90
33761;DHT22;20084;47.912;19.044;2023-12-20T01:37:23;0.30;99.90
33761;DHT22;20084;47.912;19.044;2023-12-20T01:39:50;0.30;99.90
33761;DHT22;20084;47.912;19.044;2023-12-20T01:42:16;0.20;99.90
33761;DHT22;20084;47.912;19.044;2023-12-20T01:44:41;0.30;99.90
33761;DHT22;20084;47.912;19.044;2023-12-20T01:47:07;0.40;99.90
33761;DHT22;20084;47.912;19.044;2023-12-20T01:49:33;0.30;99.90
33761;DHT22;20084;47.912;19.044;2023-12-20T01:51:58;0.30;99.90
33761;DHT22;20084;47.912;19.044;2023-12-20T01:54:24;0.20;99.90
33761;DHT22;20084;47.912;19.044;2023-12-20T01:56:49;0.20;99.90
33761;DHT22;20084;47.912;19.044;2023-12-20T01:59:15;0.20;99.90
33761;DHT22;20084;47.912;19.044;2023-12-20T02:01:42;0.10;99.90
33761;DHT22;20084;47.912;19.044;2023-12-20T02:04:07;0.10;99.90
33761;DHT22;20084;47.912;19.044;2023-12-20T02:06:33;0.00;99.90
33761;DHT22;20084;47.912;19.044;2023-12-20T02:08:59;0.00;99.90
33761;DHT22;20084;47.912;19.044;2023-12-20T02:11:25;-0.10;99.90
33761;DHT22;20084;47.912;19.044;2023-12-20T02:13:50;-0.10;99.90
33761;DHT22;20084;47.912;19.044;2023-12-20T02:16:16;-0.10;99.90
33761;DHT22;20084;47.912;19.044;2023-12-20T02:18:42;-0.10;99.90
33761;DHT22;20084;47.912;19.044;2023-12-20T02:21:07;-0.20;99.90
33761;DHT22;20084;47.912;19.044;2023-12-20T02:23:34;-0.10;99.90
33761;DHT22;20084;47.912;19.044;2023-12-20T02:26:00;-0.10;99.90
33761;DHT22;20084;47.912;19.044;2023-12-20T02:28:25;0.00;99.90
33761;DHT22;20084;47.912;19.044;2023-12-20T02:30:51;0.00;99.90
33761;DHT22;20084;47.912;19.044;2023-12-20T02:33:17;-0.10;99.90
33761;DHT22;20084;47.912;19.044;2023-12-20T02:35:42;-0.10;99.90
33761;DHT22;20084;47.912;19.044;2023-12-20T02:38:08;-0.10;99.90
33761;DHT22;20084;47.912;19.044;2023-12-20T02:40:33;-0.10;99.90
33761;DHT22;20084;47.912;19.044;2023-12-20T02:42:58;-0.10;99.90
33761;DHT22;20084;47.912;19.044;2023-12-20T02:45:24;-0.10;99.90
33761;DHT22;20084;47.912;19.044;2023-12-20T02:47:50;-0.10;99.90
33761;DHT22;20084;47.912;19.044;2023-12-20T02:50:15;-0.20;99.90
33761;DHT22;20084;47.912;19.044;2023-12-20T02:52:42;-0.20;99.90
33761;DHT22;20084;47.912;19.044;2023-12-20T02:55:08;-0.10;99.90
33761;DHT22;20084;47.912;19.044;2023-12-20T02:57:33;-0.10;99.90
33761;DHT22;20084;47.912;19.044;2023-12-20T03:00:01;-0.10;99.90
33761;DHT22;20084;47.912;19.044;2023-12-20T03:02:27;0.00;99.90
33761;DHT22;20084;47.912;19.044;2023-12-20T03:04:52;0.00;99.90
33761;DHT22;20084;47.912;19.044;2023-12-20T03:07:18;-0.10;99.90
33761;DHT22;20084;47.912;19.044;2023-12-20T03:09:43;-0.10;99.90
33761;DHT22;20084;47.912;19.044;2023-12-20T03:12:09;-0.20;99.90
33761;DHT22;20084;47.912;19.044;2023-12-20T03:14:34;-0.10;99.90
33761;DHT22;20084;47.912;19.044;2023-12-20T03:17:00;0.00;99.90
33761;DHT22;20084;47.912;19.044;2023-12-20T03:19:25;0.00;99.90
33761;DHT22;20084;47.912;19.044;2023-12-20T03:21:51;0.10;99.90
33761;DHT22;20084;47.912;19.044;2023-12-20T03:24:18;0.20;99.90
33761;DHT22;20084;47.912;19.044;2023-12-20T03:26:43;0.20;99.90
33761;DHT22;20084;47.912;19.044;2023-12-20T03:29:09;0.20;99.90
33761;DHT22;20084;47.912;19.044;2023-12-20T03:31:34;0.10;99.90
33761;DHT22;20084;47.912;19.044;2023-12-20T03:34:00;0.10;99.90
33761;DHT22;20084;47.912;19.044;2023-12-20T03:36:25;0.00;99.90
33761;DHT22;20084;47.912;19.044;2023-12-20T03:38:51;0.00;99.90
33761;DHT22;20084;47.912;19.044;2023-12-20T03:41:16;0.00;99.90
33761;DHT22;20084;47.912;19.044;2023-12-20T03:43:42;0.00;99.90
33761;DHT22;20084;47.912;19.044;2023-12-20T03:46:08;-0.20;99.90
33761;DHT22;20084;47.912;19.044;2023-12-20T03:48:33;-0.20;99.90
33761;DHT22;20084;47.912;19.044;2023-12-20T03:50:59;-0.20;99.90
33761;DHT22;20084;47.912;19.044;2023-12-20T03:53:24;-0.10;99.90
33761;DHT22;20084;47.912;19.044;2023-12-20T03:55:50;-0.10;99.90
33761;DHT22;20084;47.912;19.044;2023-12-20T03:58:15;-0.10;99.90
33761;DHT22;20084;47.912;19.044;2023-12-20T04:00:41;-0.10;99.90
33761;DHT22;20084;47.912;19.044;2023-12-20T04:03:06;-0.10;99.90
33761;DHT22;20084;47.912;19.044;2023-12-20T04:05:32;0.00;99.90
33761;DHT22;20084;47.912;19.044;2023-12-20T04:07:59;0.00;99.90
33761;DHT22;20084;47.912;19.044;2023-12-20T04:10:25;0.00;99.90
33761;DHT22;20084;47.912;19.044;2023-12-20T04:12:50;0.00;99.90
33761;DHT22;20084;47.912;19.044;2023-12-20T04:15:16;-0.10;99.90
33761;DHT22;20084;47.912;19.044;2023-12-20T04:17:41;-0.20;99.90
33761;DHT22;20084;47.912;19.044;2023-12-20T04:20:07;-0.30;99.90
33761;DHT22;20084;47.912;19.044;2023-12-20T04:22:33;-0.40;99.90
33761;DHT22;20084;47.912;19.044;2023-12-20T04:24:58;-0.40;99.90
33761;DHT22;20084;47.912;19.044;2023-12-20T04:27:23;-0.50;99.90
33761;DHT22;20084;47.912;19.044;2023-12-20T04:29:49;-0.60;99.90
33761;DHT22;20084;47.912;19.044;2023-12-20T04:32:14;-0.60;99.90
33761;DHT22;20084;47.912;19.044;2023-12-20T04:34:40;-0.70;99.90
33761;DHT22;20084;47.912;19.044;2023-12-20T04:37:05;-0.70;99.90
33761;DHT22;20084;47.912;19.044;2023-12-20T04:39:31;-0.80;99.90
33761;DHT22;20084;47.912;19.044;2023-12-20T04:41:56;-0.80;99.90
33761;DHT22;20084;47.912;19.044;2023-12-20T04:44:22;-0.80;99.90
33761;DHT22;20084;47.912;19.044;2023-12-20T04:46:47;-0.80;99.90
33761;DHT22;20084;47.912;19.044;2023-12-20T04:49:13;-0.70;99.90
33761;DHT22;20084;47.912;19.044;2023-12-20T04:51:38;-0.80;99.90
33761;DHT22;20084;47.912;19.044;2023-12-20T04:54:04;-0.70;99.90
33761;DHT22;20084;47.912;19.044;2023-12-20T04:56:29;-0.60;99.90
33761;DHT22;20084;47.912;19.044;2023-12-20T04:58:55;-0.50;99.90
33761;DHT22;20084;47.912;19.044;2023-12-20T05:01:20;-0.60;99.90
33761;DHT22;20084;47.912;19.044;2023-12-20T05:03:46;-0.60;99.90
33761;DHT22;20084;47.912;19.044;2023-12-20T05:06:12;-0.60;99.90
33761;DHT22;20084;47.912;19.044;2023-12-20T05:08:37;-0.50;99.90
33761;DHT22;20084;47.912;19.044;2023-12-20T05:11:03;-0.40;99.90
33761;DHT22;20084;47.912;19.044;2023-12-20T05:13:28;-0.30;99.90
33761;DHT22;20084;47.912;19.044;2023-12-20T05:15:54;-0.20;99.90
33761;DHT22;20084;47.912;19.044;2023-12-20T05:18:20;-0.20;99.90
33761;DHT22;20084;47.912;19.044;2023-12-20T05:20:46;-0.10;99.90
33761;DHT22;20084;47.912;19.044;2023-12-20T05:23:11;-0.10;99.90
33761;DHT22;20084;47.912;19.044;2023-12-20T05:25:38;-0.20;99.90
33761;DHT22;20084;47.912;19.044;2023-12-20T05:28:04;-0.20;99.90
33761;DHT22;20084;47.912;19.044;2023-12-20T05:30:30;-0.20;99.90
33761;DHT22;20084;47.912;19.044;2023-12-20T05:32:55;-0.20;99.90
33761;DHT22;20084;47.912;19.044;2023-12-20T05:35:20;-0.20;99.90
33761;DHT22;20084;47.912;19.044;2023-12-20T05:37:48;-0.20;99.90
33761;DHT22;20084;47.912;19.044;2023-12-20T05:40:14;-0.20;99.90
33761;DHT22;20084;47.912;19.044;2023-12-20T05:42:40;-0.30;99.90
33761;DHT22;20084;47.912;19.044;2023-12-20T05:45:05;-0.30;99.90
33761;DHT22;20084;47.912;19.044;2023-12-20T05:47:31;-0.30;99.90
33761;DHT22;20084;47.912;19.044;2023-12-20T05:49:57;-0.30;99.90
33761;DHT22;20084;47.912;19.044;2023-12-20T05:52:22;-0.50;99.90
33761;DHT22;20084;47.912;19.044;2023-12-20T05:54:47;-0.50;99.90
33761;DHT22;20084;47.912;19.044;2023-12-20T05:57:13;-0.40;99.90
33761;DHT22;20084;47.912;19.044;2023-12-20T05:59:39;-0.40;99.90
33761;DHT22;20084;47.912;19.044;2023-12-20T06:02:05;-0.40;99.90
33761;DHT22;20084;47.912;19.044;2023-12-20T06:04:30;-0.40;99.90
33761;DHT22;20084;47.912;19.044;2023-12-20T06:06:56;-0.40;99.90
33761;DHT22;20084;47.912;19.044;2023-12-20T06:09:21;-0.40;99.90
33761;DHT22;20084;47.912;19.044;2023-12-20T06:11:47;-0.50;99.90
33761;DHT22;20084;47.912;19.044;2023-12-20T06:14:12;-0.60;99.90
33761;DHT22;20084;47.912;19.044;2023-12-20T06:16:38;-0.70;99.90
33761;DHT22;20084;47.912;19.044;2023-12-20T06:19:03;-0.60;99.90
33761;DHT22;20084;47.912;19.044;2023-12-20T06:21:29;-0.70;99.90
33761;DHT22;20084;47.912;19.044;2023-12-20T06:23:54;-0.70;99.90
33761;DHT22;20084;47.912;19.044;2023-12-20T06:26:20;-0.60;99.90
33761;DHT22;20084;47.912;19.044;2023-12-20T06:28:45;-0.60;99.90
33761;DHT22;20084;47.912;19.044;2023-12-20T06:31:11;-0.60;99.90
33761;DHT22;20084;47.912;19.044;2023-12-20T06:33:36;-0.50;99.90
33761;DHT22;20084;47.912;19.044;2023-12-20T06:36:02;-0.60;99.90
33761;DHT22;20084;47.912;19.044;2023-12-20T06:38:27;-0.60;99.90
33761;DHT22;20084;47.912;19.044;2023-12-20T06:40:53;-0.70;99.90
33761;DHT22;20084;47.912;19.044;2023-12-20T06:43:19;-0.70;99.90
33761;DHT22;20084;47.912;19.044;2023-12-20T06:45:44;-0.70;99.90
33761;DHT22;20084;47.912;19.044;2023-12-20T06:48:10;-0.70;99.90
33761;DHT22;20084;47.912;19.044;2023-12-20T06:50:37;-0.70;99.90
33761;DHT22;20084;47.912;19.044;2023-12-20T06:53:05;-0.70;99.90
33761;DHT22;20084;47.912;19.044;2023-12-20T06:55:33;-0.80;99.90
33761;DHT22;20084;47.912;19.044;2023-12-20T06:57:58;-0.80;99.90
33761;DHT22;20084;47.912;19.044;2023-12-20T07:00:23;-0.80;99.90
33761;DHT22;20084;47.912;19.044;2023-12-20T07:02:49;-0.70;99.90
33761;DHT22;20084;47.912;19.044;2023-12-20T07:05:18;-0.60;99.90
33761;DHT22;20084;47.912;19.044;2023-12-20T07:07:45;-0.60;99.90
33761;DHT22;20084;47.912;19.044;2023-12-20T07:10:11;-0.70;99.90
33761;DHT22;20084;47.912;19.044;2023-12-20T07:12:37;-0.80;99.90
33761;DHT22;20084;47.912;19.044;2023-12-20T07:15:02;-0.80;99.90
33761;DHT22;20084;47.912;19.044;2023-12-20T07:17:28;-0.80;99.90
33761;DHT22;20084;47.912;19.044;2023-12-20T07:19:53;-0.70;99.90
33761;DHT22;20084;47.912;19.044;2023-12-20T07:22:19;-0.80;99.90
33761;DHT22;20084;47.912;19.044;2023-12-20T07:24:45;-0.80;99.90
33761;DHT22;20084;47.912;19.044;2023-12-20T07:27:11;-0.80;99.90
33761;DHT22;20084;47.912;19.044;2023-12-20T07:29:36;-0.80;99.90
33761;DHT22;20084;47.912;19.044;2023-12-20T07:32:02;-0.80;99.90
33761;DHT22;20084;47.912;19.044;2023-12-20T07:34:27;-0.80;99.90
33761;DHT22;20084;47.912;19.044;2023-12-20T07:36:53;-0.70;99.90
33761;DHT22;20084;47.912;19.044;2023-12-20T07:39:18;-0.70;99.90
33761;DHT22;20084;47.912;19.044;2023-12-20T07:41:44;-0.70;99.90
33761;DHT22;20084;47.912;19.044;2023-12-20T07:44:10;-0.70;99.90
33761;DHT22;20084;47.912;19.044;2023-12-20T07:46:35;-0.60;99.90
33761;DHT22;20084;47.912;19.044;2023-12-20T07:49:01;-0.60;99.90
33761;DHT22;20084;47.912;19.044;2023-12-20T07:51:26;-0.60;99.90
33761;DHT22;20084;47.912;19.044;2023-12-20T07:53:52;-0.70;99.90
33761;DHT22;20084;47.912;19.044;2023-12-20T07:56:18;-0.60;99.90
33761;DHT22;20084;47.912;19.044;2023-12-20T07:58:44;-0.50;99.90
33761;DHT22;20084;47.912;19.044;2023-12-20T08:01:13;-0.50;99.90
33761;DHT22;20084;47.912;19.044;2023-12-20T08:03:39;-0.50;99.90
33761;DHT22;20084;47.912;19.044;2023-12-20T08:06:04;-0.50;99.90
33761;DHT22;20084;47.912;19.044;2023-12-20T08:08:30;-0.50;99.90
33761;DHT22;20084;47.912;19.044;2023-12-20T08:10:55;-0.40;99.90
33761;DHT22;20084;47.912;19.044;2023-12-20T08:13:23;-0.50;99.90
33761;DHT22;20084;47.912;19.044;2023-12-20T08:15:51;-0.50;99.90
33761;DHT22;20084;47.912;19.044;2023-12-20T08:18:16;-0.50;99.90
33761;DHT22;20084;47.912;19.044;2023-12-20T08:20:42;-0.60;99.90
33761;DHT22;20084;47.912;19.044;2023-12-20T08:23:08;-0.60;99.90
33761;DHT22;20084;47.912;19.044;2023-12-20T08:25:33;-0.60;99.90
33761;DHT22;20084;47.912;19.044;2023-12-20T08:27:59;-0.60;99.90
33761;DHT22;20084;47.912;19.044;2023-12-20T08:30:24;-0.60;99.90
33761;DHT22;20084;47.912;19.044;2023-12-20T08:32:50;-0.60;99.90
33761;DHT22;20084;47.912;19.044;2023-12-20T08:35:16;-0.50;99.90
33761;DHT22;20084;47.912;19.044;2023-12-20T08:37:41;-0.50;99.90
33761;DHT22;20084;47.912;19.044;2023-12-20T08:40:07;-0.40;99.90
33761;DHT22;20084;47.912;19.044;2023-12-20T08:42:32;-0.40;99.90
33761;DHT22;20084;47.912;19.044;2023-12-20T08:44:58;-0.60;99.90
33761;DHT22;20084;47.912;19.044;2023-12-20T08:47:24;-0.70;99.90
33761;DHT22;20084;47.912;19.044;2023-12-20T08:49:49;-0.90;99.90
33761;DHT22;20084;47.912;19.044;2023-12-20T08:52:15;-1.00;99.90
33761;DHT22;20084;47.912;19.044;2023-12-20T08:54:40;-0.80;99.90
33761;DHT22;20084;47.912;19.044;2023-12-20T08:57:06;-0.70;99.90
33761;DHT22;20084;47.912;19.044;2023-12-20T08:59:32;-0.40;99.90
33761;DHT22;20084;47.912;19.044;2023-12-20T09:01:58;-0.10;99.90
33761;DHT22;20084;47.912;19.044;2023-12-20T09:04:23;0.10;99.90
33761;DHT22;20084;47.912;19.044;2023-12-20T09:06:49;0.20;99.90
33761;DHT22;20084;47.912;19.044;2023-12-20T09:09:14;0.40;99.90
33761;DHT22;20084;47.912;19.044;2023-12-20T09:11:40;0.40;99.90
33761;DHT22;20084;47.912;19.044;2023-12-20T09:14:06;0.50;99.90
33761;DHT22;20084;47.912;19.044;2023-12-20T09:16:31;0.50;99.90
33761;DHT22;20084;47.912;19.044;2023-12-20T09:18:57;0.60;99.90
33761;DHT22;20084;47.912;19.044;2023-12-20T09:21:23;0.60;99.90
33761;DHT22;20084;47.912;19.044;2023-12-20T09:23:48;0.70;99.90
33761;DHT22;20084;47.912;19.044;2023-12-20T09:26:14;0.60;99.90
33761;DHT22;20084;47.912;19.044;2023-12-20T09:28:39;0.60;99.90
33761;DHT22;20084;47.912;19.044;2023-12-20T09:31:05;0.70;99.90
33761;DHT22;20084;47.912;19.044;2023-12-20T09:33:32;0.60;99.90
33761;DHT22;20084;47.912;19.044;2023-12-20T09:35:57;0.40;99.90
33761;DHT22;20084;47.912;19.044;2023-12-20T09:38:23;0.40;99.90
33761;DHT22;20084;47.912;19.044;2023-12-20T09:40:48;0.50;99.90
33761;DHT22;20084;47.912;19.044;2023-12-20T09:43:14;0.70;99.90
33761;DHT22;20084;47.912;19.044;2023-12-20T09:45:41;0.70;99.90
33761;DHT22;20084;47.912;19.044;2023-12-20T09:48:07;0.80;99.90
33761;DHT22;20084;47.912;19.044;2023-12-20T09:50:32;0.90;99.90
33761;DHT22;20084;47.912;19.044;2023-12-20T09:52:58;1.00;99.90
33761;DHT22;20084;47.912;19.044;2023-12-20T09:55:26;1.00;99.90
33761;DHT22;20084;47.912;19.044;2023-12-20T09:57:52;1.10;99.90
33761;DHT22;20084;47.912;19.044;2023-12-20T10:00:17;1.20;99.90
33761;DHT22;20084;47.912;19.044;2023-12-20T10:02:56;1.20;99.90
33761;DHT22;20084;47.912;19.044;2023-12-20T10:05:26;1.10;99.90
33761;DHT22;20084;47.912;19.044;2023-12-20T10:07:51;1.00;99.90
33761;DHT22;20084;47.912;19.044;2023-12-20T10:10:17;1.10;99.90
33761;DHT22;20084;47.912;19.044;2023-12-20T10:13:00;1.10;99.90
33761;DHT22;20084;47.912;19.044;2023-12-20T10:15:26;1.20;99.90
33761;DHT22;20084;47.912;19.044;2023-12-20T10:17:51;1.30;99.90
33761;DHT22;20084;47.912;19.044;2023-12-20T10:20:17;1.30;99.90
33761;DHT22;20084;47.912;19.044;2023-12-20T10:22:42;1.40;99.90
33761;DHT22;20084;47.912;19.044;2023-12-20T10:25:08;1.30;99.90
33761;DHT22;20084;47.912;19.044;2023-12-20T10:27:33;1.30;99.90
33761;DHT22;20084;47.912;19.044;2023-12-20T10:29:59;1.40;99.90
33761;DHT22;20084;47.912;19.044;2023-12-20T10:32:26;1.50;99.90
33761;DHT22;20084;47.912;19.044;2023-12-20T10:34:52;1.60;99.90
33761;DHT22;20084;47.912;19.044;2023-12-20T10:37:18;1.60;99.90
33761;DHT22;20084;47.912;19.044;2023-12-20T10:39:43;1.70;99.90
33761;DHT22;20084;47.912;19.044;2023-12-20T10:42:12;1.70;99.90
33761;DHT22;20084;47.912;19.044;2023-12-20T10:44:38;1.70;99.90
33761;DHT22;20084;47.912;19.044;2023-12-20T10:47:04;1.90;99.90
33761;DHT22;20084;47.912;19.044;2023-12-20T10:49:30;1.80;99.90
33761;DHT22;20084;47.912;19.044;2023-12-20T10:51:57;1.70;99.90
33761;DHT22;20084;47.912;19.044;2023-12-20T10:54:25;1.70;99.90
33761;DHT22;20084;47.912;19.044;2023-12-20T10:56:51;1.80;99.90
33761;DHT22;20084;47.912;19.044;2023-12-20T10:59:17;1.90;99.90
33761;DHT22;20084;47.912;19.044;2023-12-20T11:01:44;2.00;99.90
33761;DHT22;20084;47.912;19.044;2023-12-20T11:04:10;2.10;99.90
33761;DHT22;20084;47.912;19.044;2023-12-20T11:11:35;2.60;99.90
33761;DHT22;20084;47.912;19.044;2023-12-20T11:14:12;2.80;99.90
33761;DHT22;20084;47.912;19.044;2023-12-20T11:16:40;3.00;99.90
33761;DHT22;20084;47.912;19.044;2023-12-20T11:19:06;3.10;99.90
33761;DHT22;20084;47.912;19.044;2023-12-20T11:21:32;3.40;99.90
33761;DHT22;20084;47.912;19.044;2023-12-20T11:23:57;3.50;99.90
33761;DHT22;20084;47.912;19.044;2023-12-20T11:26:27;3.70;99.90
33761;DHT22;20084;47.912;19.044;2023-12-20T11:28:54;3.80;99.90
33761;DHT22;20084;47.912;19.044;2023-12-20T11:31:19;3.90;99.90
33761;DHT22;20084;47.912;19.044;2023-12-20T11:33:45;3.80;99.90
33761;DHT22;20084;47.912;19.044;2023-12-20T11:36:14;3.90;99.90
33761;DHT22;20084;47.912;19.044;2023-12-20T11:38:58;4.20;99.90
33761;DHT22;20084;47.912;19.044;2023-12-20T11:41:25;4.40;99.90
33761;DHT22;20084;47.912;19.044;2023-12-20T11:43:52;4.50;99.90
33761;DHT22;20084;47.912;19.044;2023-12-20T11:46:18;4.60;99.90
33761;DHT22;20084;47.912;19.044;2023-12-20T11:48:44;4.70;99.90
33761;DHT22;20084;47.912;19.044;2023-12-20T11:51:10;4.80;99.90
33761;DHT22;20084;47.912;19.044;2023-12-20T11:53:36;4.90;99.90
33761;DHT22;20084;47.912;19.044;2023-12-20T11:56:02;5.10;99.90
33761;DHT22;20084;47.912;19.044;2023-12-20T11:58:28;5.20;99.90
33761;DHT22;20084;47.912;19.044;2023-12-20T12:00:54;5.20;99.90
33761;DHT22;20084;47.912;19.044;2023-12-20T12:03:20;5.20;99.90
33761;DHT22;20084;47.912;19.044;2023-12-20T12:05:47;5.50;99.90
33761;DHT22;20084;47.912;19.044;2023-12-20T12:08:13;5.70;99.90
33761;DHT22;20084;47.912;19.044;2023-12-20T12:10:38;5.80;99.90
33761;DHT22;20084;47.912;19.044;2023-12-20T12:13:03;5.90;99.90
33761;DHT22;20084;47.912;19.044;2023-12-20T12:15:29;6.00;99.90
33761;DHT22;20084;47.912;19.044;2023-12-20T12:17:55;6.00;99.90
33761;DHT22;20084;47.912;19.044;2023-12-20T12:20:21;6.10;99.90
33761;DHT22;20084;47.912;19.044;2023-12-20T12:22:56;6.20;99.90
33761;DHT22;20084;47.912;19.044;2023-12-20T12:25:25;6.20;99.90
33761;DHT22;20084;47.912;19.044;2023-12-20T12:27:51;6.10;99.90
33761;DHT22;20084;47.912;19.044;2023-12-20T12:30:16;6.00;99.90
33761;DHT22;20084;47.912;19.044;2023-12-20T12:32:46;6.00;99.90
33761;DHT22;20084;47.912;19.044;2023-12-20T12:35:11;6.10;99.90
33761;DHT22;20084;47.912;19.044;2023-12-20T12:37:38;6.10;99.90
33761;DHT22;20084;47.912;19.044;2023-12-20T12:40:14;6.10;99.90
33761;DHT22;20084;47.912;19.044;2023-12-20T12:42:40;6.20;99.90
33761;DHT22;20084;47.912;19.044;2023-12-20T12:45:06;6.20;99.90
33761;DHT22;20084;47.912;19.044;2023-12-20T12:47:32;6.20;99.90
33761;DHT22;20084;47.912;19.044;2023-12-20T12:49:58;6.30;99.90
33761;DHT22;20084;47.912;19.044;2023-12-20T12:52:23;6.30;99.90
33761;DHT22;20084;47.912;19.044;2023-12-20T12:54:49;6.30;99.90
33761;DHT22;20084;47.912;19.044;2023-12-20T12:57:15;6.40;99.90
33761;DHT22;20084;47.912;19.044;2023-12-20T12:59:41;6.30;99.90
33761;DHT22;20084;47.912;19.044;2023-12-20T13:02:07;6.30;99.90
33761;DHT22;20084;47.912;19.044;2023-12-20T13:04:33;6.30;99.90
33761;DHT22;20084;47.912;19.044;2023-12-20T13:06:59;6.30;99.90
33761;DHT22;20084;47.912;19.044;2023-12-20T13:09:24;6.30;99.90
33761;DHT22;20084;47.912;19.044;2023-12-20T13:11:50;6.40;99.90
33761;DHT22;20084;47.912;19.044;2023-12-20T13:14:15;6.40;99.90
33761;DHT22;20084;47.912;19.044;2023-12-20T13:16:41;6.30;99.90
33761;DHT22;20084;47.912;19.044;2023-12-20T13:19:07;6.30;99.90
33761;DHT22;20084;47.912;19.044;2023-12-20T13:21:33;6.30;99.90
33761;DHT22;20084;47.912;19.044;2023-12-20T13:23:58;6.30;99.90
33761;DHT22;20084;47.912;19.044;2023-12-20T13:26:24;6.40;99.90
33761;DHT22;20084;47.912;19.044;2023-12-20T13:28:49;6.40;99.90
33761;DHT22;20084;47.912;19.044;2023-12-20T13:31:15;6.50;99.90
33761;DHT22;20084;47.912;19.044;2023-12-20T13:33:40;6.40;99.90
33761;DHT22;20084;47.912;19.044;2023-12-20T13:36:06;6.40;99.90
33761;DHT22;20084;47.912;19.044;2023-12-20T13:38:32;6.30;99.90
33761;DHT22;20084;47.912;19.044;2023-12-20T13:40:57;6.30;99.90
33761;DHT22;20084;47.912;19.044;2023-12-20T13:43:24;6.30;99.90
33761;DHT22;20084;47.912;19.044;2023-12-20T13:45:50;6.40;99.90
33761;DHT22;20084;47.912;19.044;2023-12-20T13:48:15;6.40;99.90
33761;DHT22;20084;47.912;19.044;2023-12-20T13:50:41;6.50;99.90
33761;DHT22;20084;47.912;19.044;2023-12-20T13:53:06;6.50;99.90
33761;DHT22;20084;47.912;19.044;2023-12-20T13:55:32;6.50;99.90
33761;DHT22;20084;47.912;19.044;2023-12-20T13:57:57;6.50;99.90
33761;DHT22;20084;47.912;19.044;2023-12-20T14:00:23;6.50;99.90
33761;DHT22;20084;47.912;19.044;2023-12-20T14:02:49;6.50;99.90
33761;DHT22;20084;47.912;19.044;2023-12-20T14:05:15;6.30;99.90
33761;DHT22;20084;47.912;19.044;2023-12-20T14:07:43;6.10;99.90
33761;DHT22;20084;47.912;19.044;2023-12-20T14:10:11;6.00;99.90
33761;DHT22;20084;47.912;19.044;2023-12-20T14:12:36;6.20;99.90
33761;DHT22;20084;47.912;19.044;2023-12-20T14:15:03;6.30;99.90
33761;DHT22;20084;47.912;19.044;2023-12-20T14:17:29;6.30;99.90
33761;DHT22;20084;47.912;19.044;2023-12-20T14:19:54;6.30;99.90
33761;DHT22;20084;47.912;19.044;2023-12-20T14:22:20;6.30;99.90
33761;DHT22;20084;47.912;19.044;2023-12-20T14:24:46;6.30;99.90
33761;DHT22;20084;47.912;19.044;2023-12-20T14:27:11;6.30;99.90
33761;DHT22;20084;47.912;19.044;2023-12-20T14:29:37;6.40;99.90
33761;DHT22;20084;47.912;19.044;2023-12-20T14:32:03;6.30;99.90
33761;DHT22;20084;47.912;19.044;2023-12-20T14:34:29;6.20;99.90
33761;DHT22;20084;47.912;19.044;2023-12-20T14:36:54;6.30;99.90
33761;DHT22;20084;47.912;19.044;2023-12-20T14:39:20;6.20;99.90
33761;DHT22;20084;47.912;19.044;2023-12-20T14:41:46;6.20;99.90
33761;DHT22;20084;47.912;19.044;2023-12-20T14:44:11;6.30;99.90
33761;DHT22;20084;47.912;19.044;2023-12-20T14:46:37;6.30;99.90
33761;DHT22;20084;47.912;19.044;2023-12-20T14:49:03;6.20;99.90
33761;DHT22;20084;47.912;19.044;2023-12-20T14:51:28;6.20;99.90
33761;DHT22;20084;47.912;19.044;2023-12-20T14:53:54;6.30;99.90
33761;DHT22;20084;47.912;19.044;2023-12-20T14:56:20;6.30;99.90
33761;DHT22;20084;47.912;19.044;2023-12-20T14:58:45;6.20;99.90
33761;DHT22;20084;47.912;19.044;2023-12-20T15:01:12;6.10;99.90
33761;DHT22;20084;47.912;19.044;2023-12-20T15:03:38;6.00;99.90
33761;DHT22;20084;47.912;19.044;2023-12-20T15:06:05;6.10;99.90
33761;DHT22;20084;47.912;19.044;2023-12-20T15:08:31;6.20;99.90
33761;DHT22;20084;47.912;19.044;2023-12-20T15:10:57;6.20;99.90
33761;DHT22;20084;47.912;19.044;2023-12-20T15:13:22;6.10;99.90
33761;DHT22;20084;47.912;19.044;2023-12-20T15:15:48;6.00;99.90
33761;DHT22;20084;47.912;19.044;2023-12-20T15:18:14;6.00;99.90
33761;DHT22;20084;47.912;19.044;2023-12-20T15:20:40;6.00;99.90